createdAt,value
2023-05-09T00:01:37.105Z,74.00
2023-05-09T00:04:06.574Z,72.90
2023-05-09T00:06:36.237Z,72.70
2023-05-09T00:09:06.879Z,72.80
2023-05-09T00:11:36.269Z,72.10
2023-05-09T00:14:05.702Z,72.60
2023-05-09T00:16:36.136Z,71.70
2023-05-09T00:19:06.151Z,71.20
2023-05-09T00:21:36.340Z,71.00
2023-05-09T00:24:05.748Z,70.20
2023-05-09T00:26:35.132Z,70.60
2023-05-09T00:29:04.533Z,70.20
2023-05-09T00:31:33.990Z,69.90
2023-05-09T00:34:04.414Z,69.90
2023-05-09T00:36:34.371Z,69.40
2023-05-09T00:39:03.716Z,69.10
2023-05-09T00:41:33.485Z,68.40
2023-05-09T00:44:03.918Z,67.60
2023-05-09T00:46:33.802Z,68.10
2023-05-09T00:49:03.265Z,67.60
2023-05-09T00:51:34.263Z,67.40
2023-05-09T00:54:03.622Z,67.40
2023-05-09T00:56:33.603Z,66.60
2023-05-09T00:59:03.166Z,65.40
2023-05-09T01:01:32.664Z,63.70
2023-05-09T01:04:02.284Z,63.90
2023-05-09T01:06:43.908Z,62.30
2023-05-09T01:09:22.632Z,62.20
2023-05-09T01:12:04.401Z,62.80
2023-05-09T01:14:36.781Z,64.60
2023-05-09T01:17:26.124Z,63.50
2023-05-09T01:20:13.393Z,62.10
2023-05-09T01:22:47.407Z,61.20
2023-05-09T01:25:54.978Z,61.20
2023-05-09T01:28:24.480Z,60.70
2023-05-09T01:30:54.067Z,60.20
2023-05-09T01:33:26.327Z,59.80
2023-05-09T01:36:00.018Z,60.70
2023-05-09T01:38:32.392Z,60.10
2023-05-09T01:41:02.629Z,59.60
2023-05-09T01:43:32.449Z,59.60
2023-05-09T01:46:01.927Z,59.50
2023-05-09T01:48:32.095Z,59.20
2023-05-09T01:51:02.264Z,59.30
2023-05-09T01:53:32.207Z,58.90
2023-05-09T01:56:03.531Z,58.30
2023-05-09T01:58:34.265Z,57.90
2023-05-09T02:01:04.427Z,57.40
2023-05-09T02:03:35.689Z,55.30
2023-05-09T02:06:05.688Z,55.10
2023-05-09T02:08:36.492Z,53.90
2023-05-09T02:11:06.429Z,54.90
2023-05-09T02:13:35.812Z,55.10
2023-05-09T02:16:05.963Z,54.70
2023-05-09T02:18:36.372Z,55.00
2023-05-09T02:21:06.070Z,53.60
2023-05-09T02:23:35.898Z,53.30
2023-05-09T02:26:05.886Z,53.50
2023-05-09T02:28:35.601Z,53.10
2023-05-09T02:31:08.650Z,53.00
2023-05-09T02:33:39.340Z,52.90
2023-05-09T02:36:10.215Z,52.60
2023-05-09T02:38:40.052Z,52.70
2023-05-09T02:41:09.746Z,52.20
2023-05-09T02:43:39.111Z,52.10
2023-05-09T02:46:09.453Z,52.50
2023-05-09T02:48:39.674Z,53.10
2023-05-09T02:51:09.499Z,52.90
2023-05-09T02:53:39.891Z,53.40
2023-05-09T02:56:10.876Z,53.00
2023-05-09T02:58:40.664Z,52.60
2023-05-09T03:01:10.475Z,52.80
2023-05-09T03:03:40.010Z,53.00
2023-05-09T03:06:10.008Z,52.90
2023-05-09T03:08:39.789Z,50.50
2023-05-09T03:11:09.180Z,48.90
2023-05-09T03:13:38.536Z,48.40
2023-05-09T03:16:08.597Z,48.10
2023-05-09T03:18:38.146Z,49.30
2023-05-09T03:21:07.566Z,50.60
2023-05-09T03:23:37.211Z,50.40
2023-05-09T03:26:06.700Z,50.90
2023-05-09T03:28:36.069Z,50.70
2023-05-09T03:31:06.180Z,50.90
2023-05-09T03:33:36.193Z,51.20
2023-05-09T03:36:07.167Z,50.60
2023-05-09T03:38:36.620Z,50.00
2023-05-09T03:41:06.121Z,49.90
2023-05-09T03:43:35.491Z,49.90
2023-05-09T03:46:05.614Z,50.10
2023-05-09T03:48:35.401Z,49.50
2023-05-09T03:51:04.998Z,50.00
2023-05-09T03:53:34.499Z,49.40
2023-05-09T03:56:04.337Z,49.90
2023-05-09T03:58:34.756Z,49.40
2023-05-09T04:01:04.354Z,49.20
2023-05-09T04:03:33.964Z,50.10
2023-05-09T04:06:04.413Z,49.00
2023-05-09T04:08:34.350Z,49.40
2023-05-09T04:11:03.752Z,49.00
2023-05-09T04:13:34.607Z,48.50
2023-05-09T04:16:05.668Z,48.10
2023-05-09T04:18:36.372Z,48.40
2023-05-09T04:21:06.225Z,48.70
2023-05-09T04:23:35.709Z,48.80
2023-05-09T04:26:05.296Z,47.60
2023-05-09T04:28:35.090Z,48.40
2023-05-09T04:31:04.757Z,48.40
2023-05-09T04:33:34.352Z,48.20
2023-05-09T04:36:03.715Z,48.20
2023-05-09T04:38:33.203Z,47.90
2023-05-09T04:41:02.798Z,48.20
2023-05-09T04:43:32.995Z,47.80
2023-05-09T04:46:02.431Z,48.10
2023-05-09T04:48:31.982Z,49.00
2023-05-09T04:51:01.704Z,50.40
2023-05-09T04:53:31.261Z,50.10
2023-05-09T04:56:00.713Z,50.70
2023-05-09T04:58:30.190Z,51.10
2023-05-09T05:00:59.773Z,52.30
2023-05-09T05:03:29.257Z,52.40
2023-05-09T05:05:58.657Z,52.90
2023-05-09T05:08:28.024Z,51.80
2023-05-09T05:10:57.550Z,51.80
2023-05-09T05:13:27.172Z,51.90
2023-05-09T05:15:56.664Z,52.10
2023-05-09T05:18:26.085Z,52.60
2023-05-09T05:20:55.524Z,53.00
2023-05-09T05:23:24.906Z,53.10
2023-05-09T05:25:55.391Z,52.90
2023-05-09T05:28:26.223Z,52.90
2023-05-09T05:30:55.664Z,53.50
2023-05-09T05:33:25.492Z,53.70
2023-05-09T05:35:55.182Z,54.00
2023-05-09T05:38:24.570Z,54.50
2023-05-09T05:40:54.362Z,54.60
2023-05-09T05:43:23.765Z,54.30
2023-05-09T05:45:53.248Z,54.60
2023-05-09T05:48:22.663Z,54.80
2023-05-09T05:50:52.077Z,54.00
2023-05-09T05:53:21.425Z,54.40
2023-05-09T05:55:50.848Z,54.90
2023-05-09T05:58:20.852Z,55.40
2023-05-09T06:00:50.306Z,55.30
2023-05-09T06:03:19.717Z,55.40
2023-05-09T06:05:49.824Z,58.20
2023-05-09T06:08:19.610Z,59.30
2023-05-09T06:10:50.030Z,60.60
2023-05-09T10:37:31.639Z,73.70
2023-05-09T10:40:06.828Z,73.70
2023-05-09T10:42:36.595Z,73.50
2023-05-09T10:45:07.498Z,73.60
2023-05-09T10:47:39.127Z,73.70
2023-05-09T10:50:10.616Z,73.80
2023-05-09T10:52:57.933Z,73.90
2023-05-09T10:55:38.058Z,73.90
2023-05-09T10:58:26.038Z,74.00
2023-05-09T11:00:57.350Z,74.20
2023-05-09T11:03:28.017Z,74.20
2023-05-09T11:05:58.913Z,74.30
2023-05-09T11:08:32.653Z,74.30
2023-05-09T11:11:21.698Z,74.40
2023-05-09T11:13:51.128Z,74.70
2023-05-09T11:16:20.566Z,74.80
2023-05-09T11:18:54.043Z,75.10
2023-05-09T11:21:24.060Z,75.00
2023-05-09T11:23:55.265Z,74.90
2023-05-09T11:26:25.811Z,74.60
2023-05-09T11:28:55.955Z,74.60
2023-05-09T11:31:26.537Z,74.70
2023-05-09T11:34:04.375Z,74.60
2023-05-09T13:30:09.924Z,77.70
2023-05-09T13:32:39.707Z,77.70
2023-05-09T13:35:10.123Z,78.00
2023-05-09T13:37:39.466Z,78.20
2023-05-09T13:40:09.181Z,78.10
2023-05-09T13:42:39.670Z,77.80
2023-05-09T13:45:10.125Z,77.90
2023-05-09T13:47:40.327Z,77.70
2023-05-09T13:50:10.209Z,78.00
2023-05-09T13:52:39.574Z,78.30
2023-05-09T13:55:09.100Z,78.50
2023-05-09T13:57:38.550Z,78.60
2023-05-09T14:00:08.698Z,78.60
2023-05-09T14:02:39.632Z,78.40
2023-05-09T14:05:09.216Z,78.20
2023-05-09T14:07:38.687Z,78.60
2023-05-09T14:10:11.908Z,79.10
2023-05-09T14:12:45.684Z,79.00
2023-05-09T14:15:15.914Z,79.20
2023-05-09T14:17:45.399Z,79.30
2023-05-09T14:20:17.352Z,79.40
2023-05-09T14:22:46.868Z,79.30
2023-05-09T14:25:16.241Z,79.30
2023-05-09T14:33:01.626Z,79.50
2023-05-09T14:35:34.069Z,79.50
2023-05-09T14:38:04.858Z,79.70
2023-05-09T14:40:34.340Z,79.60
2023-05-09T14:43:07.632Z,79.40
2023-05-09T14:45:37.090Z,79.20
2023-05-09T14:48:06.547Z,79.10
2023-05-09T14:50:36.103Z,79.00
2023-05-09T14:53:05.472Z,79.40
2023-05-09T14:55:35.013Z,79.50
2023-05-09T14:58:04.913Z,79.60
2023-05-09T15:00:36.064Z,79.70
2023-05-09T15:03:06.323Z,79.50
2023-05-09T15:05:35.687Z,79.80
2023-05-09T15:08:05.377Z,79.60
2023-05-09T15:10:35.067Z,79.60
2023-05-09T15:13:05.914Z,79.80
2023-05-09T15:15:35.539Z,79.50
2023-05-09T15:18:04.920Z,79.80
2023-05-09T15:20:34.693Z,79.70
2023-05-09T15:23:05.352Z,80.40
2023-05-09T15:25:35.796Z,80.40
2023-05-09T15:28:05.634Z,80.70
2023-05-09T15:30:36.727Z,80.90
2023-05-09T15:33:07.979Z,80.90
2023-05-09T15:35:37.415Z,80.70
2023-05-09T15:38:06.802Z,80.30
2023-05-09T15:40:36.182Z,80.10
2023-05-09T15:43:08.439Z,79.80
2023-05-09T15:45:39.471Z,79.60
2023-05-09T15:48:09.125Z,79.50
2023-05-09T15:50:38.753Z,79.90
2023-05-09T15:53:09.283Z,80.00
2023-05-09T15:55:40.136Z,80.10
2023-05-09T15:58:12.863Z,80.30
2023-05-09T16:00:43.484Z,80.40
2023-05-09T16:03:14.580Z,80.30
2023-05-09T16:05:44.556Z,80.30
2023-05-09T16:08:14.312Z,80.40
2023-05-09T16:10:43.698Z,80.70
2023-05-09T16:13:13.218Z,80.70
2023-05-09T16:15:43.941Z,80.40
2023-05-09T16:18:13.364Z,80.50
2023-05-09T16:20:44.239Z,80.60
2023-05-09T16:23:13.792Z,80.60
2023-05-09T16:25:43.471Z,80.50
2023-05-09T16:28:12.842Z,80.30
2023-05-09T16:30:42.220Z,80.30
2023-05-09T16:33:11.669Z,80.50
2023-05-09T16:35:41.670Z,80.50
2023-05-09T16:38:11.190Z,80.50
2023-05-09T16:40:41.103Z,80.60
2023-05-09T16:43:10.945Z,80.60
2023-05-09T16:45:40.776Z,80.70
2023-05-09T16:48:10.266Z,80.80
2023-05-09T16:50:39.747Z,80.70
2023-05-09T16:53:09.835Z,80.70
2023-05-09T16:55:39.247Z,80.60
2023-05-09T16:58:09.552Z,80.50
2023-05-09T17:00:39.638Z,80.40
2023-05-09T17:03:09.470Z,80.60
2023-05-09T17:05:38.917Z,80.90
2023-05-09T17:08:09.346Z,81.20
2023-05-09T17:10:40.822Z,81.20
2023-05-09T17:13:12.467Z,81.00
2023-05-09T17:15:43.111Z,81.00
2023-05-09T17:18:15.317Z,81.20
2023-05-09T17:20:49.215Z,81.10
2023-05-09T17:23:18.599Z,81.10
2023-05-09T17:25:48.414Z,81.50
2023-05-09T17:28:18.090Z,81.60
2023-05-09T17:30:47.579Z,81.70
2023-05-09T17:33:17.590Z,82.10
2023-05-09T17:35:48.135Z,82.00
2023-05-09T17:38:17.923Z,82.20
2023-05-09T17:40:47.781Z,82.20
2023-05-09T17:46:01.778Z,82.60
2023-05-09T17:48:31.691Z,82.50
2023-05-09T17:51:01.289Z,82.20
2023-05-09T17:53:31.709Z,82.00
2023-05-09T17:56:01.208Z,82.20
2023-05-09T17:58:31.156Z,82.00
2023-05-09T18:01:02.486Z,82.10
2023-05-09T18:03:33.808Z,82.50
2023-05-09T18:06:04.798Z,82.50
2023-05-09T18:08:34.155Z,82.90
2023-05-09T18:11:03.665Z,82.90
2023-05-09T18:13:33.274Z,82.80
2023-05-09T18:16:03.142Z,82.50
2023-05-09T18:18:38.092Z,82.40
2023-05-09T18:21:09.669Z,82.20
2023-05-09T18:23:39.659Z,81.90
2023-05-09T18:26:09.712Z,81.70
2023-05-09T18:28:42.414Z,81.50
2023-05-09T18:31:13.296Z,81.20
2023-05-09T18:33:42.730Z,81.00
2023-05-09T18:36:13.695Z,81.20
2023-05-09T18:38:43.410Z,81.10
2023-05-09T18:41:14.035Z,81.10
2023-05-09T18:43:47.608Z,81.20
2023-05-09T18:46:18.890Z,81.30
2023-05-09T18:48:49.590Z,81.00
2023-05-09T18:51:20.461Z,81.00
2023-05-09T18:53:50.445Z,81.20
2023-05-09T18:56:24.123Z,81.40
2023-05-09T18:58:53.699Z,81.40
2023-05-09T19:01:24.305Z,81.70
2023-05-09T19:03:56.018Z,82.20
2023-05-09T19:06:25.751Z,82.30
2023-05-09T19:08:55.540Z,82.20
2023-05-09T19:11:25.077Z,82.10
2023-05-09T19:13:54.760Z,81.90
2023-05-09T19:16:27.936Z,81.60
2023-05-09T19:18:58.019Z,81.30
2023-05-09T19:21:27.612Z,81.20
2023-05-09T19:23:57.124Z,81.20
2023-05-09T19:26:26.528Z,81.20
2023-05-09T19:28:56.272Z,81.30
2023-05-09T19:31:27.073Z,81.20
2023-05-09T19:33:56.424Z,81.40
2023-05-09T19:36:26.172Z,81.60
2023-05-09T19:38:55.604Z,81.70
2023-05-09T19:41:24.960Z,81.70
2023-05-09T19:43:54.331Z,81.80
2023-05-09T19:46:24.464Z,81.70
2023-05-09T19:48:54.352Z,81.40
2023-05-09T19:51:23.679Z,81.20
2023-05-09T19:53:53.337Z,81.20
2023-05-09T19:56:25.195Z,81.40
2023-05-09T19:58:54.725Z,81.60
2023-05-09T20:01:24.513Z,81.80
2023-05-09T20:03:55.305Z,81.70
2023-05-09T20:06:25.849Z,81.70
2023-05-09T20:08:55.220Z,82.00
2023-05-09T20:11:24.653Z,82.00
2023-05-09T20:13:55.113Z,81.90
2023-05-09T20:16:24.519Z,81.80
2023-05-09T20:18:54.023Z,81.80
2023-05-09T20:21:24.581Z,81.80
2023-05-09T20:23:54.355Z,81.70
2023-05-09T20:26:25.194Z,81.80
2023-05-09T20:29:00.542Z,82.10
2023-05-09T22:16:43.444Z,84.60
2023-05-09T22:19:12.949Z,84.40
2023-05-09T22:21:42.887Z,84.40
2023-05-09T22:24:12.368Z,84.20
2023-05-09T22:26:42.123Z,83.90
2023-05-09T22:29:11.617Z,83.40
2023-05-09T22:31:41.050Z,82.90
2023-05-09T22:34:10.961Z,82.70
2023-05-09T22:36:40.822Z,82.40
2023-05-09T22:39:11.336Z,82.10
2023-05-09T22:41:40.741Z,81.70
2023-05-09T22:44:12.204Z,81.60
2023-05-09T22:46:42.085Z,81.40
2023-05-09T22:49:11.589Z,81.30
2023-05-09T22:51:40.980Z,81.00
2023-05-09T22:54:10.700Z,80.40
2023-05-09T22:56:40.044Z,79.30
2023-05-09T22:59:09.388Z,79.30
2023-05-09T23:01:39.218Z,79.10
2023-05-09T23:04:08.595Z,78.30
2023-05-09T23:06:37.955Z,78.10
2023-05-09T23:09:07.286Z,77.80
2023-05-09T23:11:37.658Z,77.40
2023-05-09T23:14:07.022Z,77.20
